Time;durP1;ratioP1;P1;durP2;ratioP2;P2;SDS_P1;SDS_P2;PMS_P1;PMS_P2;Temp;Humidity;BMP_temperature;BMP_pressure;BME280_temperature;BME280_humidity;BME280_pressure;Samples;Min_cycle;Max_cycle;Signal;HPM_P1;HPM_P2
2022/03/31 00:00:36;;;;;;;11.97;4.90;;;;;;;-5.60;64.61;98930.52;1788349;79;21550;-61
2022/03/31 00:03:09;;;;;;;8.98;4.72;;;;;;;-5.60;64.59;98935.60;1783648;79;20981;-62
2022/03/31 00:05:37;;;;;;;10.53;4.35;;;;;;;-5.62;64.63;98935.19;1785149;79;20982;-62
2022/03/31 00:08:13;;;;;;;6.08;3.50;;;;;;;-5.63;64.67;98938.58;1813651;78;21516;-62
2022/03/31 00:10:45;;;;;;;8.55;4.37;;;;;;;-5.60;64.76;98934.33;1795445;77;21088;-62
2022/03/31 00:13:19;;;;;;;9.80;4.08;;;;;;;-5.59;64.78;98933.51;1797054;78;21511;-62
2022/03/31 00:15:47;;;;;;;6.42;3.72;;;;;;;-5.58;64.83;98937.74;1766252;80;21484;-62
2022/03/31 00:18:16;;;;;;;12.55;5.03;;;;;;;-5.60;64.77;98934.33;1790253;79;20983;-62
2022/03/31 00:20:43;;;;;;;8.53;4.45;;;;;;;-5.62;64.89;98937.73;1792080;78;20941;-62
2022/03/31 00:23:09;;;;;;;7.90;3.72;;;;;;;-5.65;64.93;98933.90;1783271;79;21325;-62
2022/03/31 00:25:36;;;;;;;7.65;3.75;;;;;;;-5.66;64.95;98938.57;1794064;79;20946;-62
2022/03/31 00:28:04;;;;;;;5.67;3.37;;;;;;;-5.66;65.01;98936.03;1796284;79;21052;-62
2022/03/31 00:30:31;;;;;;;;;;;;;;;-5.66;65.00;98938.57;1796270;79;21629;-62
2022/03/31 00:32:59;;;;;;;6.60;3.55;;;;;;;-5.66;65.07;98938.57;1792006;78;20419;-62
2022/03/31 00:35:26;;;;;;;6.80;3.83;;;;;;;-5.67;65.06;98940.66;1793411;79;21079;-62
2022/03/31 00:37:53;;;;;;;6.05;3.70;;;;;;;-5.65;65.12;98936.44;1794300;78;28810;-62
2022/03/31 00:40:22;;;;;;;9.33;5.37;;;;;;;-5.60;65.20;98944.50;1794879;79;21472;-62
2022/03/31 00:42:54;;;;;;;11.28;5.10;;;;;;;-5.58;65.23;98940.28;1794638;79;20992;-62
2022/03/31 00:45:24;;;;;;;8.95;5.10;;;;;;;-5.55;65.32;98937.75;1788838;78;21060;-62
2022/03/31 00:47:52;;;;;;;10.45;5.50;;;;;;;-5.53;65.35;98937.34;1792366;79;21111;-62
2022/03/31 00:50:24;;;;;;;9.03;4.62;;;;;;;-5.51;65.34;98934.40;1790043;79;21013;-62
2022/03/31 00:52:54;;;;;;;7.70;4.17;;;;;;;-5.51;65.39;98930.58;1798831;78;21568;-62
2022/03/31 00:55:23;;;;;;;5.05;3.08;;;;;;;-5.51;65.44;98934.40;1798277;78;20991;-62
2022/03/31 00:57:55;;;;;;;5.47;3.55;;;;;;;-5.51;65.49;98936.94;1786506;78;21004;-63
2022/03/31 01:00:19;;;;;;;7.58;3.58;;;;;;;-5.51;65.57;98939.48;1795703;78;21231;-62
2022/03/31 01:02:46;;;;;;;5.58;3.47;;;;;;;-5.51;65.63;98930.58;1777583;79;21583;-62
2022/03/31 01:05:15;;;;;;;6.72;3.30;;;;;;;-5.51;65.64;98935.67;1778466;80;21019;-62
2022/03/31 01:07:43;;;;;;;9.78;3.42;;;;;;;-5.52;65.75;98940.30;1782277;79;21519;-62
2022/03/31 01:10:12;;;;;;;6.80;3.22;;;;;;;-5.55;65.74;98935.21;1786797;79;21036;-62
2022/03/31 01:12:42;;;;;;;7.22;3.08;;;;;;;-5.56;65.80;98934.79;1751591;79;21285;-62
2022/03/31 01:15:19;;;;;;;10.03;4.40;;;;;;;-5.57;65.82;98931.80;1779824;80;21052;-62
2022/03/31 01:17:48;;;;;;;4.83;3.10;;;;;;;-5.60;65.81;98937.75;1775471;79;20985;-63
2022/03/31 01:20:21;;;;;;;6.75;3.67;;;;;;;-5.63;65.91;98937.31;1779119;79;21238;-62
2022/03/31 01:22:51;;;;;;;7.40;2.80;;;;;;;-5.66;65.92;98928.39;1775547;80;20942;-62
2022/03/31 01:25:18;;;;;;;7.40;2.85;;;;;;;-5.66;66.02;98929.67;1777884;79;21062;-62
2022/03/31 01:27:47;;;;;;;3.67;2.20;;;;;;;-5.63;66.07;98928.41;1780934;79;21543;-61
2022/03/31 01:30:20;;;;;;;4.03;1.72;;;;;;;-5.59;66.16;98933.51;1780531;80;21531;-62
2022/03/31 01:32:47;;;;;;;4.08;1.60;;;;;;;-5.56;66.22;98929.70;1778900;78;20904;-62
2022/03/31 01:35:15;;;;;;;1.50;1.22;;;;;;;-5.51;66.25;98930.58;1776867;79;20966;-62
2022/03/31 01:37:42;;;;;;;;;;;;;;;-5.47;66.34;98931.01;1781973;79;21581;-63
2022/03/31 01:40:10;;;;;;;4.37;2.30;;;;;;;-5.40;66.40;98929.78;1774712;79;20163;-62
2022/03/31 01:42:38;;;;;;;8.83;2.52;;;;;;;-5.41;66.26;98928.48;1777938;79;21487;-62
2022/03/31 01:45:10;;;;;;;6.65;2.30;;;;;;;-5.44;66.24;98938.66;1780148;80;21055;-62
2022/03/31 01:47:37;;;;;;;3.30;1.92;;;;;;;-5.49;66.21;98935.23;1778543;80;21657;-62
2022/03/31 01:50:32;;;;;;;4.25;1.80;;;;;;;-5.49;66.34;98927.59;1860880;75;23446;-60
2022/03/31 01:52:59;;;;;;;3.67;1.67;;;;;;;-5.52;66.39;98930.98;1835023;77;20997;-60
2022/03/31 01:55:26;;;;;;;2.45;1.60;;;;;;;-5.51;66.42;98930.16;1842047;77;21401;-61
2022/03/31 01:57:53;;;;;;;3.60;1.70;;;;;;;-5.52;66.37;98936.49;1836607;75;21569;-61
2022/03/31 02:00:20;;;;;;;4.47;2.08;;;;;;;-5.55;66.42;98925.03;1829795;75;21040;-60
2022/03/31 02:02:46;;;;;;;6.05;2.70;;;;;;;-5.59;66.40;98924.18;1831685;77;21026;-61
2022/03/31 02:05:13;;;;;;;9.40;3.70;;;;;;;-5.63;66.44;98923.33;1828571;77;20993;-61
2022/03/31 02:07:40;;;;;;;3.55;1.72;;;;;;;-5.67;66.37;98924.13;1830286;75;22243;-61
2022/03/31 02:10:12;;;;;;;2.47;1.77;;;;;;;-5.69;66.49;98924.97;1832963;77;21471;-61
2022/03/31 02:12:39;;;;;;;3.55;1.70;;;;;;;-5.69;66.54;98925.81;1833071;76;21719;-62
2022/03/31 02:15:13;;;;;;;4.00;1.47;;;;;;;-5.67;66.66;98929.22;1836585;76;20990;-62
2022/03/31 02:17:38;;;;;;;2.22;1.55;;;;;;;-5.61;66.72;98925.86;1830845;76;20978;-62
2022/03/31 02:20:07;;;;;;;1.72;1.00;;;;;;;-5.59;66.68;98928.42;1833368;76;21548;-64
2022/03/31 02:22:33;;;;;;;5.78;1.95;;;;;;;-5.57;66.71;98926.71;1827894;77;20985;-62
2022/03/31 02:25:01;;;;;;;2.63;1.20;;;;;;;-5.57;66.72;98929.25;1832964;75;20931;-62
2022/03/31 02:27:27;;;;;;;;;;;;;;;-5.52;66.79;98927.59;1838590;77;20977;-62
2022/03/31 02:29:54;;;;;;;1.77;1.30;;;;;;;-5.48;66.84;98929.32;1835910;75;20984;-63
2022/03/31 02:32:20;;;;;;;2.43;1.40;;;;;;;-5.47;66.82;98923.38;1812308;77;21997;-62
2022/03/31 02:34:47;;;;;;;4.60;1.70;;;;;;;-5.43;66.82;98927.65;1774879;79;21076;-63
2022/03/31 02:37:14;;;;;;;2.37;1.57;;;;;;;-5.36;66.84;98926.81;1770570;80;21019;-62
2022/03/31 02:39:40;;;;;;;4.90;2.15;;;;;;;-5.40;66.71;98921.30;1769877;79;21023;-62
2022/03/31 02:42:07;;;;;;;3.83;1.67;;;;;;;-5.44;66.73;98926.77;1769490;79;20990;-62
2022/03/31 02:44:34;;;;;;;5.92;2.62;;;;;;;-5.47;66.70;98931.01;1770655;79;21132;-62
2022/03/31 02:47:01;;;;;;;9.13;2.03;;;;;;;-5.54;66.72;98921.67;1776748;79;21055;-62
2022/03/31 02:49:27;;;;;;;5.33;1.70;;;;;;;-5.54;66.83;98926.75;1771459;78;20977;-62
2022/03/31 02:51:54;;;;;;;3.63;1.90;;;;;;;-5.50;66.96;98922.94;1783844;79;21296;-62
2022/03/31 02:57:06;;;;;;;1.85;1.00;;;;;;;-5.35;67.01;98930.20;1774077;79;22046;-62
2022/03/31 02:59:33;;;;;;;;;;;;;;;-5.32;66.97;98937.45;1784598;79;20961;-62
2022/03/31 03:02:00;;;;;;;2.62;1.55;;;;;;;-5.25;67.11;98922.61;1771590;79;20129;-61
2022/03/31 03:04:27;;;;;;;2.77;1.20;;;;;;;-5.23;66.96;98926.45;1774575;79;22493;-62
2022/03/31 03:06:54;;;;;;;2.42;0.98;;;;;;;-5.18;67.07;98924.34;1777768;79;21052;-61
2022/03/31 03:09:21;;;;;;;5.10;1.52;;;;;;;-5.12;67.12;98927.77;1769711;78;21494;-61
2022/03/31 03:11:47;;;;;;;3.52;1.75;;;;;;;-5.09;66.92;98925.22;1768586;78;21032;-61
2022/03/31 03:14:14;;;;;;;25.10;3.35;;;;;;;-5.23;66.59;98925.18;1804285;78;21542;-62
2022/03/31 03:16:44;;;;;;;3.25;1.47;;;;;;;-5.36;66.61;98928.09;1775324;78;20959;-61
2022/03/31 03:19:12;;;;;;;5.45;1.70;;;;;;;-5.58;66.53;98930.95;1780899;80;22548;-62
2022/03/31 03:21:39;;;;;;;8.20;2.02;;;;;;;-5.65;66.85;98932.63;1777585;80;21507;-61
2022/03/31 03:24:07;;;;;;;6.97;1.57;;;;;;;-5.60;67.00;98924.16;1798134;78;20938;-62
2022/03/31 03:26:33;;;;;;;7.75;1.80;;;;;;;-5.58;67.06;98925.02;1793643;78;21022;-62
2022/03/31 03:29:00;;;;;;;3.62;1.20;;;;;;;-5.59;66.95;98923.34;1794203;78;20912;-62
2022/03/31 03:31:27;;;;;;;2.35;1.50;;;;;;;-5.60;67.00;98933.06;1767590;80;20989;-62
2022/03/31 03:33:54;;;;;;;2.22;1.20;;;;;;;-5.62;67.04;98930.09;1762032;80;21592;-62
2022/03/31 03:36:21;;;;;;;4.95;1.80;;;;;;;-5.62;67.07;98932.64;1796002;78;20897;-62
2022/03/31 03:38:47;;;;;;;2.12;1.10;;;;;;;-5.62;67.04;98933.91;1761415;80;21640;-62
2022/03/31 03:41:14;;;;;;;5.95;1.87;;;;;;;-5.62;67.11;98936.88;1793981;78;21035;-61
2022/03/31 03:43:42;;;;;;;5.40;1.73;;;;;;;-5.63;67.05;98934.77;1767220;80;21501;-61
2022/03/31 03:46:09;;;;;;;4.10;1.20;;;;;;;-5.62;67.12;98933.91;1792547;78;21079;-61
2022/03/31 03:48:36;;;;;;;2.47;1.57;;;;;;;-5.56;67.24;98924.62;1788856;79;21080;-61
2022/03/31 03:51:03;;;;;;;10.58;3.33;;;;;;;-5.53;67.20;98924.20;1785387;79;21538;-61
2022/03/31 03:53:30;;;;;;;6.60;1.82;;;;;;;-5.59;66.99;98920.80;1799743;78;28143;-61
2022/03/31 03:55:56;;;;;;;3.27;1.75;;;;;;;-5.68;66.97;98932.62;1793015;77;20963;-61
2022/03/31 03:58:23;;;;;;;18.40;2.92;;;;;;;-5.71;67.10;98937.69;1789381;78;21199;-61
2022/03/31 04:00:50;;;;;;;8.13;2.22;;;;;;;-5.71;67.18;98935.14;1790822;78;20932;-62
2022/03/31 04:03:17;;;;;;;6.53;1.75;;;;;;;-5.76;67.02;98939.34;1799634;77;21006;-62
2022/03/31 04:05:44;;;;;;;;;;;;;;;-5.79;67.12;98936.80;1803867;78;20998;-61
2022/03/31 04:08:11;;;;;;;1.83;1.50;;;;;;;-5.81;67.26;98938.47;1777665;78;20121;-62
2022/03/31 04:10:37;;;;;;;1.65;1.30;;;;;;;-5.75;67.32;98937.66;1779783;78;21350;-62
2022/03/31 04:13:05;;;;;;;8.80;1.72;;;;;;;-5.71;67.33;98936.42;1785351;78;21060;-62
2022/03/31 04:15:32;;;;;;;11.15;1.65;;;;;;;-5.67;67.29;98934.30;1770566;78;24811;-61
2022/03/31 04:17:59;;;;;;;14.83;3.12;;;;;;;-5.67;67.27;98934.30;1788039;80;21067;-62
2022/03/31 04:20:26;;;;;;;4.08;1.85;;;;;;;-5.75;67.08;98937.23;1783396;78;21519;-62
2022/03/31 04:22:52;;;;;;;5.90;2.37;;;;;;;-5.79;67.15;98929.16;1790486;79;21119;-62
2022/03/31 04:25:19;;;;;;;11.65;2.95;;;;;;;-5.82;67.21;98929.16;1791881;79;21051;-62
2022/03/31 04:27:46;;;;;;;9.35;2.83;;;;;;;-5.87;67.23;98935.89;1790373;79;21569;-61
2022/03/31 04:30:17;;;;;;;3.20;1.77;;;;;;;-5.84;67.34;98937.19;1780750;79;20922;-61
2022/03/31 04:32:42;;;;;;;6.95;2.40;;;;;;;-5.75;67.47;98939.77;1782492;79;21001;-61
2022/03/31 04:35:10;;;;;;;16.20;4.22;;;;;;;-5.74;67.30;98947.84;1784268;79;21421;-61
2022/03/31 04:37:38;;;;;;;5.78;2.30;;;;;;;-5.35;68.05;98946.31;1787934;78;20989;-62
2022/03/31 04:40:09;;;;;;;7.08;2.77;;;;;;;-4.62;68.02;98939.72;1785861;79;21001;-61
2022/03/31 04:42:37;;;;;;;11.85;3.35;;;;;;;-3.77;68.04;98939.28;1784551;79;21058;-62
2022/03/31 04:45:05;;;;;;;4.80;2.00;;;;;;;-3.12;67.31;98945.84;1789109;78;21008;-61
2022/03/31 04:47:32;;;;;;;12.07;3.47;;;;;;;-2.52;67.28;98946.77;1788044;78;21081;-62
2022/03/31 04:50:00;;;;;;;3.52;2.05;;;;;;;-1.61;67.68;98942.56;1777187;79;21072;-63
2022/03/31 04:52:27;;;;;;;9.83;3.65;;;;;;;-0.87;67.49;98944.67;1774974;79;21500;-63
2022/03/31 04:54:54;;;;;;;7.13;3.50;;;;;;;-0.07;67.55;98935.34;1769578;79;20973;-62
2022/03/31 04:57:25;;;;;;;33.37;5.70;;;;;;;0.77;67.40;98937.64;1778345;79;20938;-63
2022/03/31 04:59:49;;;;;;;6.62;2.35;;;;;;;1.58;67.44;98939.34;1776137;79;22016;-62
2022/03/31 05:02:18;;;;;;;27.58;5.30;;;;;;;2.44;67.26;98940.16;1779341;79;21017;-63
2022/03/31 05:04:44;;;;;;;19.77;4.70;;;;;;;3.09;67.19;98933.20;1778645;79;20977;-63
2022/03/31 05:07:11;;;;;;;5.72;2.45;;;;;;;3.73;66.80;98932.52;1775831;80;21024;-63
2022/03/31 05:09:38;;;;;;;17.05;4.62;;;;;;;4.32;66.94;98926.70;1778294;79;21010;-63
2022/03/31 05:12:07;;;;;;;18.03;4.93;;;;;;;4.76;66.66;98929.44;1780071;79;21958;-63
2022/03/31 05:14:34;;;;;;;10.08;2.60;;;;;;;5.30;66.35;98931.73;1770934;79;22537;-63
2022/03/31 05:17:02;;;;;;;7.10;2.10;;;;;;;5.86;66.13;98930.39;1778000;80;20923;-63
2022/03/31 05:19:29;;;;;;;7.62;2.80;;;;;;;6.28;66.65;98938.62;1775234;79;21060;-60
2022/03/31 05:21:55;;;;;;;13.33;5.00;;;;;;;6.68;66.01;98938.20;1772599;79;21006;-61
2022/03/31 05:24:22;;;;;;;5.87;1.77;;;;;;;7.18;66.03;98938.99;1807771;77;22283;-61
2022/03/31 05:26:52;;;;;;;3.65;1.60;;;;;;;7.63;65.29;98939.05;1805232;78;21036;-61
2022/03/31 05:29:19;;;;;;;7.15;2.80;;;;;;;7.74;64.78;98940.67;1805588;78;21013;-61
2022/03/31 05:31:47;;;;;;;10.70;1.90;;;;;;;7.64;64.52;98940.72;1777223;78;21493;-61
2022/03/31 05:34:14;;;;;;;4.05;2.00;;;;;;;7.70;65.04;98940.45;1775569;78;21075;-61
2022/03/31 05:36:41;;;;;;;2.55;1.50;;;;;;;7.66;64.11;98938.91;1787393;79;22783;-61
2022/03/31 05:39:08;;;;;;;6.15;2.80;;;;;;;7.69;64.52;98949.14;1779834;78;21093;-61
2022/03/31 05:41:35;;;;;;;5.33;2.10;;;;;;;7.94;64.73;98947.97;1777713;79;20989;-61
2022/03/31 05:44:02;;;;;;;63.73;6.37;;;;;;;8.11;64.42;98946.67;1778855;78;21060;-61
2022/03/31 05:46:29;;;;;;;3.35;2.20;;;;;;;8.19;64.53;98944.54;1773911;79;21008;-61
2022/03/31 05:48:56;;;;;;;3.37;2.70;;;;;;;8.17;63.78;98943.77;1780006;79;21886;-61
2022/03/31 05:51:23;;;;;;;5.62;2.80;;;;;;;7.92;63.25;98942.00;1762341;79;21494;-61
2022/03/31 05:53:50;;;;;;;;;;;;;;;7.88;63.38;98945.67;1758536;80;20998;-61
2022/03/31 05:56:16;;;;;;;6.10;3.02;;;;;;;7.84;63.04;98950.16;1757925;80;20434;-60
2022/03/31 05:58:43;;;;;;;5.60;2.40;;;;;;;7.61;62.52;98955.16;1738477;80;21022;-61
2022/03/31 06:01:10;;;;;;;3.55;2.70;;;;;;;7.50;62.14;98958.72;1758058;79;21130;-61
2022/03/31 06:03:40;;;;;;;2.47;1.77;;;;;;;7.48;62.40;98957.94;1759035;80;22001;-62
2022/03/31 06:06:07;;;;;;;5.12;1.60;;;;;;;7.36;61.33;98962.80;1729672;80;21005;-60
2022/03/31 06:08:36;;;;;;;5.00;1.55;;;;;;;7.22;61.40;98962.59;1758943;79;21074;-62
2022/03/31 06:11:04;;;;;;;2.83;1.50;;;;;;;7.20;61.35;98968.33;1754834;80;21025;-62
2022/03/31 06:13:32;;;;;;;4.87;2.58;;;;;;;7.30;61.26;98965.68;1763360;79;21154;-63
2022/03/31 06:15:59;;;;;;;3.75;1.90;;;;;;;7.48;61.07;98965.73;1762766;80;21569;-63
2022/03/31 06:18:26;;;;;;;2.85;1.62;;;;;;;7.28;60.13;98964.93;1757158;80;21511;-62
2022/03/31 06:20:53;;;;;;;4.00;1.67;;;;;;;7.27;60.01;98968.42;1776460;80;20999;-62
2022/03/31 06:23:20;;;;;;;5.03;2.05;;;;;;;7.01;58.78;98966.17;1757792;80;21012;-61
2022/03/31 06:25:46;;;;;;;2.40;1.27;;;;;;;6.58;58.70;98976.69;1780347;78;21078;-62
2022/03/31 06:28:15;;;;;;;2.77;1.70;;;;;;;6.32;57.91;98972.58;1755208;80;21059;-63
2022/03/31 06:30:43;;;;;;;3.05;1.80;;;;;;;6.02;58.04;98972.09;1762070;79;21075;-63
2022/03/31 06:33:10;;;;;;;4.30;1.75;;;;;;;5.86;57.39;98984.80;1770744;79;20966;-64
2022/03/31 06:35:38;;;;;;;8.10;1.40;;;;;;;5.61;56.89;98975.86;1772890;80;21010;-63
2022/03/31 06:38:05;;;;;;;2.70;1.40;;;;;;;5.31;56.65;98973.98;1772296;79;21086;-66
2022/03/31 06:40:36;;;;;;;2.75;1.37;;;;;;;5.25;56.48;98985.41;1765409;79;21012;-62
2022/03/31 06:43:01;;;;;;;1.67;1.05;;;;;;;5.25;56.27;98980.69;1760246;79;21064;-61
2022/03/31 06:45:28;;;;;;;1.45;1.00;;;;;;;5.20;55.36;98986.03;1766638;79;21545;-62
2022/03/31 06:47:55;;;;;;;;;;;;;;;4.96;55.28;98989.08;1764959;79;21052;-62
2022/03/31 06:50:24;;;;;;;1.30;0.90;;;;;;;4.89;54.97;98984.55;1761720;79;21105;-61
2022/03/31 06:52:52;;;;;;;1.50;0.90;;;;;;;4.64;53.50;98984.58;1734297;80;21025;-61
2022/03/31 06:55:19;;;;;;;3.25;1.00;;;;;;;4.45;53.17;98987.40;1761369;80;21011;-61
2022/03/31 06:57:46;;;;;;;2.45;1.10;;;;;;;4.33;53.94;98991.70;1763232;79;21106;-62
2022/03/31 07:00:15;;;;;;;1.10;0.90;;;;;;;4.22;51.85;98989.02;1761811;79;21000;-62
2022/03/31 07:02:42;;;;;;;3.08;1.05;;;;;;;4.22;53.36;98985.14;1756639;79;21971;-61
2022/03/31 07:05:10;;;;;;;1.92;0.85;;;;;;;4.33;53.44;98992.99;1763946;79;20985;-62
2022/03/31 07:07:36;;;;;;;4.50;1.02;;;;;;;4.36;52.69;98999.34;1763818;80;20922;-61
2022/03/31 07:10:06;;;;;;;3.33;1.20;;;;;;;4.29;52.77;98988.84;1753554;79;20950;-62
2022/03/31 07:12:32;;;;;;;;;;;;;;;4.18;52.43;98987.44;1767391;79;21040;-61
2022/03/31 07:15:00;;;;;;;2.10;0.90;;;;;;;3.86;52.39;99013.45;1761040;79;21691;-62
2022/03/31 07:17:27;;;;;;;2.20;0.90;;;;;;;3.44;52.18;99003.54;1763146;80;21069;-63
2022/03/31 07:19:53;;;;;;;1.77;1.10;;;;;;;2.91;51.50;99007.63;1764879;79;20940;-62
2022/03/31 07:22:20;;;;;;;2.70;1.40;;;;;;;2.41;51.42;99016.70;1773184;80;21044;-62
2022/03/31 07:24:48;;;;;;;1.87;0.98;;;;;;;2.10;51.46;99025.19;1764146;79;21027;-63
2022/03/31 07:27:15;;;;;;;1.45;0.93;;;;;;;1.91;51.31;99014.47;1760618;79;21104;-62
2022/03/31 07:29:42;;;;;;;;;;;;;;;1.73;50.94;99002.02;1771770;79;21018;-62
2022/03/31 07:32:09;;;;;;;1.17;0.90;;;;;;;1.58;51.00;99016.53;1768242;79;20146;-63
2022/03/31 07:34:35;;;;;;;7.33;1.50;;;;;;;1.37;51.20;99017.37;1765639;80;20965;-63
2022/03/31 07:37:05;;;;;;;2.20;0.90;;;;;;;1.38;51.31;99013.95;1765810;79;20998;-62
2022/03/31 07:39:34;;;;;;;1.57;0.88;;;;;;;1.40;51.31;99016.47;1765764;79;21101;-62
2022/03/31 07:42:02;;;;;;;1.70;1.00;;;;;;;1.47;51.53;99029.17;1765879;80;20984;-62
2022/03/31 07:44:29;;;;;;;1.77;0.90;;;;;;;1.50;51.39;99021.38;1757822;79;21030;-63
2022/03/31 07:46:56;;;;;;;2.02;0.90;;;;;;;1.51;51.63;99014.51;1758908;80;20973;-63
2022/03/31 07:49:26;;;;;;;2.50;1.00;;;;;;;1.60;51.75;99027.61;1754711;80;20948;-63
2022/03/31 07:51:53;;;;;;;2.55;1.15;;;;;;;1.63;51.64;99018.56;1742186;80;21091;-62
2022/03/31 07:54:20;;;;;;;2.80;1.10;;;;;;;1.79;51.99;99014.73;1760960;79;21553;-63
2022/03/31 07:56:46;;;;;;;1.80;0.95;;;;;;;1.88;51.39;99014.55;1758705;79;21060;-62
2022/03/31 07:59:13;;;;;;;4.90;1.23;;;;;;;1.77;50.59;99029.39;1751662;80;20969;-63
2022/03/31 08:01:40;;;;;;;1.30;0.80;;;;;;;1.46;50.54;99026.20;1747312;79;21024;-62
2022/03/31 08:04:07;;;;;;;3.57;1.10;;;;;;;1.42;50.43;99038.70;1760683;79;21043;-63
2022/03/31 08:06:37;;;;;;;2.60;0.90;;;;;;;1.32;50.51;99032.09;1761154;80;27116;-62
2022/03/31 08:09:03;;;;;;;2.22;1.12;;;;;;;1.32;50.19;99026.94;1776870;78;20983;-64
2022/03/31 08:11:30;;;;;;;3.60;1.10;;;;;;;1.28;50.24;99025.30;1777277;78;21614;-64
2022/03/31 08:13:57;;;;;;;1.95;1.02;;;;;;;1.37;50.17;99019.95;1746338;80;20985;-64
2022/03/31 08:16:25;;;;;;;1.10;1.00;;;;;;;1.40;50.52;99032.77;1750902;80;21567;-63
2022/03/31 08:18:52;;;;;;;2.37;0.90;;;;;;;1.50;50.35;99031.67;1755440;80;21044;-63
2022/03/31 08:21:20;;;;;;;2.60;1.30;;;;;;;1.47;50.17;99013.73;1745974;80;20951;-63
2022/03/31 08:23:47;;;;;;;1.30;0.90;;;;;;;1.56;50.15;99021.25;1744033;79;20914;-63
2022/03/31 08:26:14;;;;;;;3.35;1.25;;;;;;;1.59;49.61;99038.80;1758719;80;21080;-63
2022/03/31 08:28:41;;;;;;;2.77;0.90;;;;;;;1.50;49.83;99028.27;1765425;79;21528;-63
2022/03/31 08:31:07;;;;;;;3.07;0.90;;;;;;;1.58;49.39;99035.83;1756748;79;20990;-63
2022/03/31 08:33:35;;;;;;;2.58;1.20;;;;;;;1.65;48.93;99036.08;1758485;79;21083;-63
2022/03/31 08:36:01;;;;;;;1.72;0.90;;;;;;;1.71;49.14;99037.22;1757071;79;20997;-63
2022/03/31 08:38:28;;;;;;;4.92;1.22;;;;;;;1.65;48.94;99039.94;1757071;79;21479;-63
2022/03/31 08:40:56;;;;;;;2.33;0.97;;;;;;;1.65;48.87;99050.23;1746718;80;21103;-63
2022/03/31 08:43:26;;;;;;;1.35;0.93;;;;;;;1.48;48.69;99041.14;1750631;79;21017;-63
2022/03/31 08:45:55;;;;;;;1.47;0.90;;;;;;;1.37;48.67;99044.38;1753291;79;21570;-64
2022/03/31 08:51:13;;;;;;;2.00;1.17;;;;;;;1.37;48.29;99055.96;1679777;84;21633;-63
2022/03/31 08:53:39;;;;;;;1.60;1.20;;;;;;;1.38;48.73;99042.69;1677818;83;21594;-63
2022/03/31 08:56:09;;;;;;;1.82;1.20;;;;;;;1.51;48.70;99051.40;1681290;83;21050;-63
2022/03/31 08:58:58;;;;;;;2.83;1.30;;;;;;;1.61;48.33;99049.46;1655322;84;21070;-63
2022/03/31 09:01:25;;;;;;;3.70;1.27;;;;;;;1.67;48.34;99040.77;1710282;81;22372;-64
2022/03/31 09:03:55;;;;;;;1.90;1.30;;;;;;;1.55;48.36;99047.87;1719579;81;21578;-64
2022/03/31 09:06:30;;;;;;;1.65;0.98;;;;;;;1.27;47.82;99044.19;1722011;82;21096;-64
2022/03/31 09:09:02;;;;;;;4.03;1.10;;;;;;;1.33;48.33;99041.48;1726067;82;20962;-64
2022/03/31 09:11:35;;;;;;;2.30;1.10;;;;;;;1.30;48.42;99055.25;1720034;82;21534;-64
2022/03/31 09:14:06;;;;;;;1.65;1.10;;;;;;;1.34;48.07;99038.89;1691263;82;20996;-64
2022/03/31 09:16:38;;;;;;;2.27;1.27;;;;;;;1.20;47.93;99052.89;1708907;82;21528;-64
2022/03/31 09:19:15;;;;;;;1.85;1.10;;;;;;;1.31;48.15;99045.80;1734726;81;23033;-63
2022/03/31 09:21:57;;;;;;;2.37;1.17;;;;;;;1.41;48.02;99061.47;1719362;82;21550;-63
2022/03/31 09:24:27;;;;;;;2.50;1.47;;;;;;;1.49;48.04;99040.28;1681165;83;21103;-64
2022/03/31 09:26:58;;;;;;;3.17;1.20;;;;;;;1.48;47.30;99035.16;1696773;82;21086;-64
2022/03/31 09:29:27;;;;;;;2.33;1.62;;;;;;;1.58;47.93;99036.66;1699510;82;21614;-63
2022/03/31 09:32:11;;;;;;;2.37;1.20;;;;;;;1.70;47.78;99043.27;1695469;82;22322;-63
2022/03/31 09:34:48;;;;;;;1.22;0.95;;;;;;;1.69;47.18;99053.16;1701798;82;20918;-63
2022/03/31 09:37:16;;;;;;;;;;;;;;;1.60;46.99;99049.06;1703040;82;21116;-63
2022/03/31 09:39:42;;;;;;;2.45;1.05;;;;;;;1.39;47.18;99038.78;1698991;82;20109;-63
2022/03/31 09:42:13;;;;;;;2.47;1.32;;;;;;;1.43;47.06;99042.99;1684695;83;21025;-63
2022/03/31 09:44:42;;;;;;;3.75;1.30;;;;;;;1.51;46.85;99025.67;1698335;82;21128;-62
2022/03/31 09:47:12;;;;;;;2.85;1.30;;;;;;;1.59;47.25;99042.66;1690707;83;21605;-62
2022/03/31 09:49:39;;;;;;;1.47;1.20;;;;;;;1.46;46.73;99032.64;1686507;83;22278;-63
2022/03/31 09:52:11;;;;;;;4.05;2.20;;;;;;;1.39;46.92;99043.92;1685037;83;21694;-63
2022/03/31 09:54:38;;;;;;;3.77;1.35;;;;;;;1.54;46.94;99043.61;1680630;83;21134;-63
2022/03/31 09:57:10;;;;;;;2.87;1.20;;;;;;;1.40;46.64;99032.77;1693202;83;21109;-63
2022/03/31 09:59:40;;;;;;;4.47;1.55;;;;;;;1.48;46.95;99029.56;1683021;83;21000;-63
2022/03/31 10:02:10;;;;;;;6.78;1.40;;;;;;;1.62;46.87;99023.28;1689540;83;21150;-63
2022/03/31 10:04:41;;;;;;;1.67;1.47;;;;;;;1.83;46.98;99014.25;1704192;82;20995;-63
2022/03/31 10:07:12;;;;;;;4.97;1.40;;;;;;;1.96;47.29;99017.79;1706421;82;21085;-64
2022/03/31 10:09:42;;;;;;;2.42;1.25;;;;;;;2.13;47.25;99013.94;1711909;82;21439;-64
2022/03/31 10:12:45;;;;;;;1.75;1.25;;;;;;;2.21;46.87;99018.46;1706955;82;21008;-64
2022/03/31 10:15:35;;;;;;;4.87;1.55;;;;;;;2.21;46.81;99035.20;1704748;82;21136;-64
2022/03/31 10:18:04;;;;;;;1.90;1.20;;;;;;;2.36;46.34;99019.39;1704798;83;21108;-64
2022/03/31 10:20:31;;;;;;;8.25;1.50;;;;;;;2.34;45.81;99018.57;1703702;83;21579;-65
2022/03/31 10:25:50;;;;;;;3.55;1.57;;;;;;;2.35;46.24;99024.14;1697105;83;21057;-65
2022/03/31 10:28:22;;;;;;;6.28;1.85;;;;;;;2.48;46.20;99019.96;1719931;82;21526;-65
2022/03/31 10:31:09;;;;;;;9.00;1.45;;;;;;;2.54;46.00;99022.38;1722492;82;21068;-65
2022/03/31 10:34:03;;;;;;;3.52;1.60;;;;;;;2.48;45.75;99031.55;1720834;82;26765;-65
2022/03/31 10:36:47;;;;;;;2.85;1.62;;;;;;;2.31;45.47;99028.95;1710685;82;21139;-65
2022/03/31 10:39:21;;;;;;;3.45;1.57;;;;;;;2.19;45.80;99024.12;1719912;81;21088;-65
2022/03/31 10:42:07;;;;;;;3.50;1.72;;;;;;;2.27;45.42;99015.77;1724123;81;21063;-61
2022/03/31 10:44:34;;;;;;;5.28;1.92;;;;;;;2.40;45.99;99010.68;1710673;82;21578;-65
2022/03/31 10:47:09;;;;;;;2.42;1.57;;;;;;;2.46;45.75;99010.55;1721680;81;21069;-66
2022/03/31 10:49:37;;;;;;;8.28;2.20;;;;;;;2.30;45.84;99013.11;1728192;81;21041;-66
2022/03/31 10:52:17;;;;;;;12.23;1.60;;;;;;;2.28;45.41;99016.16;1710534;82;21720;-65
2022/03/31 10:54:44;;;;;;;4.58;1.67;;;;;;;2.46;45.30;99013.13;1723920;82;21074;-64
2022/03/31 10:57:17;;;;;;;3.15;1.60;;;;;;;2.51;45.74;99003.13;1724267;81;21131;-64
2022/03/31 10:59:47;;;;;;;5.10;1.72;;;;;;;2.57;45.31;99001.67;1724314;81;21058;-64
2022/03/31 11:02:22;;;;;;;2.90;1.77;;;;;;;2.40;44.86;99000.38;1729295;81;21066;-65
2022/03/31 11:04:53;;;;;;;4.95;1.95;;;;;;;2.22;44.40;99021.47;1711606;83;21014;-64
2022/03/31 11:07:24;;;;;;;2.37;1.77;;;;;;;2.13;44.57;99011.36;1722489;81;21042;-64
2022/03/31 11:10:12;;;;;;;2.33;1.82;;;;;;;2.12;44.73;98998.09;1721897;83;21007;-65
2022/03/31 11:12:41;;;;;;;3.42;1.80;;;;;;;2.27;44.07;99009.32;1724244;81;21633;-65
2022/03/31 11:15:15;;;;;;;3.55;2.22;;;;;;;2.26;44.13;99005.48;1722386;81;21264;-64
2022/03/31 11:17:47;;;;;;;3.37;1.87;;;;;;;2.21;44.10;99007.75;1724778;81;21002;-64
2022/03/31 11:20:21;;;;;;;3.08;2.00;;;;;;;2.15;44.18;99012.18;1711147;82;21005;-65
2022/03/31 11:22:56;;;;;;;2.92;2.08;;;;;;;2.14;44.49;99022.09;1723270;81;21661;-64
2022/03/31 11:25:24;;;;;;;3.47;1.55;;;;;;;2.20;44.62;99006.48;1723538;81;21531;-65
2022/03/31 11:27:53;;;;;;;2.83;1.98;;;;;;;2.29;44.17;99006.69;1724492;81;21124;-66
2022/03/31 11:30:24;;;;;;;3.50;1.70;;;;;;;2.37;44.28;99005.61;1726247;81;21557;-65
2022/03/31 11:32:56;;;;;;;4.17;1.75;;;;;;;2.40;44.43;99013.26;1711330;82;21052;-64
2022/03/31 11:35:26;;;;;;;5.17;1.70;;;;;;;2.42;44.07;99008.08;1713311;81;20962;-63
2022/03/31 11:38:00;;;;;;;3.10;1.87;;;;;;;2.55;44.48;99002.15;1725581;82;21079;-63
2022/03/31 11:40:35;;;;;;;1.87;1.47;;;;;;;2.67;44.13;99006.55;1701056;83;21599;-64
2022/03/31 11:43:09;;;;;;;3.67;2.15;;;;;;;2.84;43.94;99011.25;1710304;82;21109;-64
2022/03/31 11:45:43;;;;;;;8.00;3.12;;;;;;;2.75;43.71;99006.36;1682873;83;20980;-64
2022/03/31 11:48:14;;;;;;;3.50;2.25;;;;;;;2.67;44.18;99017.31;1698623;83;21045;-65
2022/03/31 11:50:57;;;;;;;6.28;2.33;;;;;;;2.66;44.08;99009.16;1713375;82;21025;-64
2022/03/31 11:53:35;;;;;;;5.08;2.55;;;;;;;2.70;44.14;99017.22;1700191;83;21042;-64
2022/03/31 11:56:09;;;;;;;5.45;2.47;;;;;;;2.63;43.93;99019.55;1688349;83;21542;-65